sensor_id;sensor_type;location;lat;lon;timestamp;P1;durP1;ratioP1;P2;durP2;ratioP2
3095;SDS011;1558;42.700;23.360;2023-10-13T00:01:08;11.20;;;10.00;;
3095;SDS011;1558;42.700;23.360;2023-10-13T00:03:39;14.27;;;10.57;;
3095;SDS011;1558;42.700;23.360;2023-10-13T00:06:07;14.47;;;11.20;;
3095;SDS011;1558;42.700;23.360;2023-10-13T00:08:37;17.43;;;12.90;;
3095;SDS011;1558;42.700;23.360;2023-10-13T00:11:11;13.53;;;10.30;;
3095;SDS011;1558;42.700;23.360;2023-10-13T00:13:39;12.27;;;9.63;;
3095;SDS011;1558;42.700;23.360;2023-10-13T00:16:16;11.80;;;10.20;;
3095;SDS011;1558;42.700;23.360;2023-10-13T00:18:49;11.20;;;10.03;;
3095;SDS011;1558;42.700;23.360;2023-10-13T00:21:21;13.77;;;10.20;;
3095;SDS011;1558;42.700;23.360;2023-10-13T00:23:58;11.40;;;10.03;;
3095;SDS011;1558;42.700;23.360;2023-10-13T00:26:29;11.70;;;9.73;;
3095;SDS011;1558;42.700;23.360;2023-10-13T00:28:58;12.83;;;10.00;;
3095;SDS011;1558;42.700;23.360;2023-10-13T00:31:36;15.20;;;10.63;;
3095;SDS011;1558;42.700;23.360;2023-10-13T00:34:09;12.53;;;9.83;;
3095;SDS011;1558;42.700;23.360;2023-10-13T00:36:39;13.87;;;10.00;;
3095;SDS011;1558;42.700;23.360;2023-10-13T00:39:15;13.67;;;9.80;;
3095;SDS011;1558;42.700;23.360;2023-10-13T00:41:45;15.33;;;10.70;;
3095;SDS011;1558;42.700;23.360;2023-10-13T00:44:23;14.10;;;10.67;;
3095;SDS011;1558;42.700;23.360;2023-10-13T00:46:55;13.80;;;10.80;;
3095;SDS011;1558;42.700;23.360;2023-10-13T00:49:23;14.20;;;10.13;;
3095;SDS011;1558;42.700;23.360;2023-10-13T00:51:52;14.20;;;10.60;;
3095;SDS011;1558;42.700;23.360;2023-10-13T00:54:21;15.37;;;10.13;;
3095;SDS011;1558;42.700;23.360;2023-10-13T00:56:55;11.50;;;10.30;;
3095;SDS011;1558;42.700;23.360;2023-10-13T00:59:31;13.10;;;10.30;;
3095;SDS011;1558;42.700;23.360;2023-10-13T01:02:08;13.87;;;10.23;;
3095;SDS011;1558;42.700;23.360;2023-10-13T01:04:50;13.33;;;9.93;;
3095;SDS011;1558;42.700;23.360;2023-10-13T01:07:21;13.70;;;10.00;;
3095;SDS011;1558;42.700;23.360;2023-10-13T01:09:49;12.77;;;10.47;;
3095;SDS011;1558;42.700;23.360;2023-10-13T01:12:19;15.03;;;10.50;;
3095;SDS011;1558;42.700;23.360;2023-10-13T01:14:46;15.27;;;10.67;;
3095;SDS011;1558;42.700;23.360;2023-10-13T01:17:15;12.97;;;10.07;;
3095;SDS011;1558;42.700;23.360;2023-10-13T01:19:42;14.43;;;10.97;;
3095;SDS011;1558;42.700;23.360;2023-10-13T01:22:12;14.87;;;10.53;;
3095;SDS011;1558;42.700;23.360;2023-10-13T01:24:41;15.30;;;10.47;;
3095;SDS011;1558;42.700;23.360;2023-10-13T01:27:08;12.67;;;10.77;;
3095;SDS011;1558;42.700;23.360;2023-10-13T01:29:44;15.80;;;10.47;;
3095;SDS011;1558;42.700;23.360;2023-10-13T01:32:15;18.90;;;10.87;;
3095;SDS011;1558;42.700;23.360;2023-10-13T01:34:44;13.03;;;10.97;;
3095;SDS011;1558;42.700;23.360;2023-10-13T01:37:13;12.80;;;9.80;;
3095;SDS011;1558;42.700;23.360;2023-10-13T01:39:44;12.20;;;10.60;;
3095;SDS011;1558;42.700;23.360;2023-10-13T01:42:14;14.57;;;10.40;;
3095;SDS011;1558;42.700;23.360;2023-10-13T01:44:46;12.93;;;10.20;;
3095;SDS011;1558;42.700;23.360;2023-10-13T01:47:14;13.30;;;10.30;;
3095;SDS011;1558;42.700;23.360;2023-10-13T01:49:43;12.60;;;11.30;;
3095;SDS011;1558;42.700;23.360;2023-10-13T01:52:14;14.03;;;10.57;;
3095;SDS011;1558;42.700;23.360;2023-10-13T01:54:44;12.37;;;10.13;;
3095;SDS011;1558;42.700;23.360;2023-10-13T01:57:12;12.87;;;10.20;;
3095;SDS011;1558;42.700;23.360;2023-10-13T01:59:40;17.27;;;10.53;;
3095;SDS011;1558;42.700;23.360;2023-10-13T02:02:10;13.37;;;10.60;;
3095;SDS011;1558;42.700;23.360;2023-10-13T02:04:39;16.07;;;10.77;;
3095;SDS011;1558;42.700;23.360;2023-10-13T02:07:15;13.23;;;11.07;;
3095;SDS011;1558;42.700;23.360;2023-10-13T02:09:44;14.73;;;11.17;;
3095;SDS011;1558;42.700;23.360;2023-10-13T02:12:12;13.13;;;11.20;;
3095;SDS011;1558;42.700;23.360;2023-10-13T02:14:42;15.80;;;10.97;;
3095;SDS011;1558;42.700;23.360;2023-10-13T02:17:11;13.13;;;10.80;;
3095;SDS011;1558;42.700;23.360;2023-10-13T02:19:38;14.13;;;11.10;;
3095;SDS011;1558;42.700;23.360;2023-10-13T02:22:12;14.47;;;11.60;;
3095;SDS011;1558;42.700;23.360;2023-10-13T02:24:52;14.33;;;11.27;;
3095;SDS011;1558;42.700;23.360;2023-10-13T02:27:24;14.83;;;12.13;;
3095;SDS011;1558;42.700;23.360;2023-10-13T02:29:51;14.87;;;11.73;;
3095;SDS011;1558;42.700;23.360;2023-10-13T02:32:25;14.33;;;12.13;;
3095;SDS011;1558;42.700;23.360;2023-10-13T02:34:53;14.87;;;11.90;;
3095;SDS011;1558;42.700;23.360;2023-10-13T02:37:24;17.47;;;12.40;;
3095;SDS011;1558;42.700;23.360;2023-10-13T02:39:52;15.40;;;11.90;;
3095;SDS011;1558;42.700;23.360;2023-10-13T02:42:24;13.80;;;11.63;;
3095;SDS011;1558;42.700;23.360;2023-10-13T02:44:51;16.63;;;11.93;;
3095;SDS011;1558;42.700;23.360;2023-10-13T02:47:22;13.50;;;11.73;;
3095;SDS011;1558;42.700;23.360;2023-10-13T02:49:51;18.07;;;12.27;;
3095;SDS011;1558;42.700;23.360;2023-10-13T02:52:19;11.83;;;10.57;;
3095;SDS011;1558;42.700;23.360;2023-10-13T02:54:52;15.47;;;11.13;;
3095;SDS011;1558;42.700;23.360;2023-10-13T02:57:19;12.23;;;10.50;;
3095;SDS011;1558;42.700;23.360;2023-10-13T02:59:50;13.73;;;10.43;;
3095;SDS011;1558;42.700;23.360;2023-10-13T03:02:23;12.77;;;10.63;;
3095;SDS011;1558;42.700;23.360;2023-10-13T03:04:52;12.13;;;10.43;;
3095;SDS011;1558;42.700;23.360;2023-10-13T03:07:26;12.03;;;10.13;;
3095;SDS011;1558;42.700;23.360;2023-10-13T03:09:57;12.87;;;10.30;;
3095;SDS011;1558;42.700;23.360;2023-10-13T03:12:27;11.57;;;9.63;;
3095;SDS011;1558;42.700;23.360;2023-10-13T03:15:00;12.53;;;10.00;;
3095;SDS011;1558;42.700;23.360;2023-10-13T03:17:39;15.87;;;10.50;;
3095;SDS011;1558;42.700;23.360;2023-10-13T03:20:10;13.43;;;10.10;;
3095;SDS011;1558;42.700;23.360;2023-10-13T03:22:40;10.70;;;9.57;;
3095;SDS011;1558;42.700;23.360;2023-10-13T03:25:13;11.17;;;9.50;;
3095;SDS011;1558;42.700;23.360;2023-10-13T03:27:51;20.67;;;10.23;;
3095;SDS011;1558;42.700;23.360;2023-10-13T03:30:31;10.87;;;9.87;;
3095;SDS011;1558;42.700;23.360;2023-10-13T03:33:05;11.17;;;9.20;;
3095;SDS011;1558;42.700;23.360;2023-10-13T03:35:36;12.40;;;9.90;;
3095;SDS011;1558;42.700;23.360;2023-10-13T03:38:07;10.13;;;8.90;;
3095;SDS011;1558;42.700;23.360;2023-10-13T03:40:45;12.40;;;10.17;;
3095;SDS011;1558;42.700;23.360;2023-10-13T03:43:16;15.07;;;11.00;;
3095;SDS011;1558;42.700;23.360;2023-10-13T03:45:49;16.20;;;11.77;;
3095;SDS011;1558;42.700;23.360;2023-10-13T03:48:27;15.43;;;10.47;;
3095;SDS011;1558;42.700;23.360;2023-10-13T03:50:57;19.33;;;11.10;;
3095;SDS011;1558;42.700;23.360;2023-10-13T03:53:30;14.70;;;11.43;;
3095;SDS011;1558;42.700;23.360;2023-10-13T03:56:04;14.40;;;11.13;;
3095;SDS011;1558;42.700;23.360;2023-10-13T03:58:39;11.73;;;10.63;;
3095;SDS011;1558;42.700;23.360;2023-10-13T04:01:12;16.23;;;11.40;;
3095;SDS011;1558;42.700;23.360;2023-10-13T04:03:41;16.27;;;11.80;;
3095;SDS011;1558;42.700;23.360;2023-10-13T04:06:23;17.40;;;14.73;;
3095;SDS011;1558;42.700;23.360;2023-10-13T04:09:14;15.67;;;12.70;;
3095;SDS011;1558;42.700;23.360;2023-10-13T04:12:01;16.70;;;12.03;;
3095;SDS011;1558;42.700;23.360;2023-10-13T04:15:07;21.80;;;13.10;;
3095;SDS011;1558;42.700;23.360;2023-10-13T04:17:46;16.47;;;13.37;;
3095;SDS011;1558;42.700;23.360;2023-10-13T04:20:15;21.40;;;14.97;;
3095;SDS011;1558;42.700;23.360;2023-10-13T04:23:04;18.43;;;13.83;;
3095;SDS011;1558;42.700;23.360;2023-10-13T04:25:46;18.90;;;12.90;;
3095;SDS011;1558;42.700;23.360;2023-10-13T04:28:35;26.23;;;20.47;;
3095;SDS011;1558;42.700;23.360;2023-10-13T04:31:17;18.00;;;13.73;;
3095;SDS011;1558;42.700;23.360;2023-10-13T04:34:02;15.87;;;14.00;;
3095;SDS011;1558;42.700;23.360;2023-10-13T04:36:42;20.20;;;13.17;;
3095;SDS011;1558;42.700;23.360;2023-10-13T04:39:12;14.97;;;11.77;;
3095;SDS011;1558;42.700;23.360;2023-10-13T04:41:55;14.47;;;12.13;;
3095;SDS011;1558;42.700;23.360;2023-10-13T04:44:38;17.03;;;11.90;;
3095;SDS011;1558;42.700;23.360;2023-10-13T04:47:18;20.40;;;11.37;;
3095;SDS011;1558;42.700;23.360;2023-10-13T04:49:48;15.60;;;11.90;;
3095;SDS011;1558;42.700;23.360;2023-10-13T04:52:19;15.03;;;11.03;;
3095;SDS011;1558;42.700;23.360;2023-10-13T04:55:17;16.07;;;11.87;;
3095;SDS011;1558;42.700;23.360;2023-10-13T04:58:14;15.83;;;12.57;;
3095;SDS011;1558;42.700;23.360;2023-10-13T05:01:04;16.37;;;11.77;;
3095;SDS011;1558;42.700;23.360;2023-10-13T05:04:11;16.23;;;12.07;;
3095;SDS011;1558;42.700;23.360;2023-10-13T05:06:48;17.90;;;11.40;;
3095;SDS011;1558;42.700;23.360;2023-10-13T05:09:34;12.67;;;11.33;;
3095;SDS011;1558;42.700;23.360;2023-10-13T05:12:19;18.83;;;12.57;;
3095;SDS011;1558;42.700;23.360;2023-10-13T05:15:07;15.90;;;12.43;;
3095;SDS011;1558;42.700;23.360;2023-10-13T05:17:56;22.53;;;14.10;;
3095;SDS011;1558;42.700;23.360;2023-10-13T05:20:41;18.67;;;13.67;;
3095;SDS011;1558;42.700;23.360;2023-10-13T05:23:27;23.23;;;13.03;;
3095;SDS011;1558;42.700;23.360;2023-10-13T05:26:12;16.57;;;13.37;;
3095;SDS011;1558;42.700;23.360;2023-10-13T05:29:12;21.87;;;14.20;;
3095;SDS011;1558;42.700;23.360;2023-10-13T05:31:58;18.37;;;13.33;;
3095;SDS011;1558;42.700;23.360;2023-10-13T05:34:45;22.57;;;13.97;;
3095;SDS011;1558;42.700;23.360;2023-10-13T05:37:31;20.47;;;13.57;;
3095;SDS011;1558;42.700;23.360;2023-10-13T05:40:16;28.97;;;15.50;;
3095;SDS011;1558;42.700;23.360;2023-10-13T05:43:02;26.40;;;14.50;;
3095;SDS011;1558;42.700;23.360;2023-10-13T05:45:48;18.20;;;14.67;;
3095;SDS011;1558;42.700;23.360;2023-10-13T05:48:31;28.80;;;14.63;;
3095;SDS011;1558;42.700;23.360;2023-10-13T05:51:30;33.07;;;15.50;;
3095;SDS011;1558;42.700;23.360;2023-10-13T05:54:10;28.83;;;14.50;;
3095;SDS011;1558;42.700;23.360;2023-10-13T05:56:56;26.37;;;14.63;;
3095;SDS011;1558;42.700;23.360;2023-10-13T05:59:42;27.97;;;14.60;;
3095;SDS011;1558;42.700;23.360;2023-10-13T06:02:27;21.27;;;13.67;;
3095;SDS011;1558;42.700;23.360;2023-10-13T06:05:13;18.23;;;12.67;;
3095;SDS011;1558;42.700;23.360;2023-10-13T06:08:00;24.87;;;13.50;;
3095;SDS011;1558;42.700;23.360;2023-10-13T06:10:48;20.67;;;13.48;;
3095;SDS011;1558;42.700;23.360;2023-10-13T06:13:35;28.58;;;15.35;;
3095;SDS011;1558;42.700;23.360;2023-10-13T06:16:22;21.02;;;15.32;;
3095;SDS011;1558;42.700;23.360;2023-10-13T06:19:08;21.92;;;15.43;;
3095;SDS011;1558;42.700;23.360;2023-10-13T06:21:53;20.75;;;15.70;;
3095;SDS011;1558;42.700;23.360;2023-10-13T06:24:40;18.90;;;15.65;;
3095;SDS011;1558;42.700;23.360;2023-10-13T06:27:25;20.58;;;14.80;;
3095;SDS011;1558;42.700;23.360;2023-10-13T06:30:11;27.83;;;17.10;;
3095;SDS011;1558;42.700;23.360;2023-10-13T06:32:40;23.02;;;14.77;;
3095;SDS011;1558;42.700;23.360;2023-10-13T06:35:08;21.75;;;15.48;;
3095;SDS011;1558;42.700;23.360;2023-10-13T06:37:45;25.48;;;15.00;;
3095;SDS011;1558;42.700;23.360;2023-10-13T06:40:15;20.75;;;14.57;;
3095;SDS011;1558;42.700;23.360;2023-10-13T06:42:53;20.27;;;14.98;;
3095;SDS011;1558;42.700;23.360;2023-10-13T06:45:22;20.23;;;15.02;;
3095;SDS011;1558;42.700;23.360;2023-10-13T06:47:54;28.42;;;16.90;;
3095;SDS011;1558;42.700;23.360;2023-10-13T06:50:25;22.17;;;15.20;;
3095;SDS011;1558;42.700;23.360;2023-10-13T06:52:55;24.98;;;16.38;;
3095;SDS011;1558;42.700;23.360;2023-10-13T06:55:25;25.80;;;15.95;;
3095;SDS011;1558;42.700;23.360;2023-10-13T06:57:54;18.88;;;15.68;;
3095;SDS011;1558;42.700;23.360;2023-10-13T07:00:26;21.23;;;15.82;;
3095;SDS011;1558;42.700;23.360;2023-10-13T07:02:56;22.63;;;15.18;;
3095;SDS011;1558;42.700;23.360;2023-10-13T07:05:36;21.88;;;14.88;;
3095;SDS011;1558;42.700;23.360;2023-10-13T07:08:06;21.35;;;15.02;;
3095;SDS011;1558;42.700;23.360;2023-10-13T07:10:36;20.65;;;14.88;;
3095;SDS011;1558;42.700;23.360;2023-10-13T07:13:15;18.60;;;13.75;;
3095;SDS011;1558;42.700;23.360;2023-10-13T07:15:44;17.00;;;15.27;;
3095;SDS011;1558;42.700;23.360;2023-10-13T07:18:12;20.38;;;15.93;;
3095;SDS011;1558;42.700;23.360;2023-10-13T07:20:41;29.75;;;15.55;;
3095;SDS011;1558;42.700;23.360;2023-10-13T07:23:11;21.02;;;15.85;;
3095;SDS011;1558;42.700;23.360;2023-10-13T07:25:52;17.70;;;15.20;;
3095;SDS011;1558;42.700;23.360;2023-10-13T07:28:23;18.17;;;15.55;;
3095;SDS011;1558;42.700;23.360;2023-10-13T07:30:51;21.02;;;16.10;;
3095;SDS011;1558;42.700;23.360;2023-10-13T07:33:33;18.23;;;16.33;;
3095;SDS011;1558;42.700;23.360;2023-10-13T07:36:02;18.17;;;16.27;;
3095;SDS011;1558;42.700;23.360;2023-10-13T07:38:38;18.92;;;16.20;;
3095;SDS011;1558;42.700;23.360;2023-10-13T07:41:10;23.35;;;17.10;;
3095;SDS011;1558;42.700;23.360;2023-10-13T07:43:42;18.42;;;16.17;;
3095;SDS011;1558;42.700;23.360;2023-10-13T07:46:11;24.90;;;16.98;;
3095;SDS011;1558;42.700;23.360;2023-10-13T07:48:39;24.23;;;16.30;;
3095;SDS011;1558;42.700;23.360;2023-10-13T07:51:12;21.63;;;15.85;;
3095;SDS011;1558;42.700;23.360;2023-10-13T07:53:42;18.58;;;16.02;;
3095;SDS011;1558;42.700;23.360;2023-10-13T07:56:16;24.20;;;16.58;;
3095;SDS011;1558;42.700;23.360;2023-10-13T07:58:45;24.13;;;16.00;;
3095;SDS011;1558;42.700;23.360;2023-10-13T08:01:19;27.85;;;17.15;;
3095;SDS011;1558;42.700;23.360;2023-10-13T08:03:48;17.33;;;15.25;;
3095;SDS011;1558;42.700;23.360;2023-10-13T08:06:31;29.85;;;18.65;;
3095;SDS011;1558;42.700;23.360;2023-10-13T08:09:01;25.10;;;16.73;;
3095;SDS011;1558;42.700;23.360;2023-10-13T08:11:37;18.38;;;13.88;;
3095;SDS011;1558;42.700;23.360;2023-10-13T08:14:08;20.17;;;13.30;;
3095;SDS011;1558;42.700;23.360;2023-10-13T08:17:03;19.13;;;13.43;;
3095;SDS011;1558;42.700;23.360;2023-10-13T08:19:36;22.35;;;15.10;;
3095;SDS011;1558;42.700;23.360;2023-10-13T08:22:12;23.20;;;15.85;;
3095;SDS011;1558;42.700;23.360;2023-10-13T08:25:02;15.63;;;13.25;;
3095;SDS011;1558;42.700;23.360;2023-10-13T08:27:52;19.90;;;12.60;;
3095;SDS011;1558;42.700;23.360;2023-10-13T08:30:34;27.80;;;14.07;;
3095;SDS011;1558;42.700;23.360;2023-10-13T08:33:18;21.48;;;13.80;;
3095;SDS011;1558;42.700;23.360;2023-10-13T08:35:51;24.27;;;14.77;;
3095;SDS011;1558;42.700;23.360;2023-10-13T08:38:42;24.98;;;14.57;;
3095;SDS011;1558;42.700;23.360;2023-10-13T08:41:18;20.80;;;14.60;;
3095;SDS011;1558;42.700;23.360;2023-10-13T08:44:01;21.75;;;16.30;;
3095;SDS011;1558;42.700;23.360;2023-10-13T08:46:36;21.90;;;15.90;;
3095;SDS011;1558;42.700;23.360;2023-10-13T08:49:35;24.02;;;16.25;;
3095;SDS011;1558;42.700;23.360;2023-10-13T08:52:10;26.45;;;16.88;;
3095;SDS011;1558;42.700;23.360;2023-10-13T08:55:07;23.35;;;17.63;;
3095;SDS011;1558;42.700;23.360;2023-10-13T08:57:55;24.55;;;17.40;;
3095;SDS011;1558;42.700;23.360;2023-10-13T09:00:31;21.90;;;15.75;;
3095;SDS011;1558;42.700;23.360;2023-10-13T09:03:14;20.45;;;14.85;;
3095;SDS011;1558;42.700;23.360;2023-10-13T09:05:56;18.77;;;14.95;;
3095;SDS011;1558;42.700;23.360;2023-10-13T09:08:33;21.27;;;15.55;;
3095;SDS011;1558;42.700;23.360;2023-10-13T09:11:11;19.48;;;16.48;;
3095;SDS011;1558;42.700;23.360;2023-10-13T09:13:39;22.00;;;17.45;;
3095;SDS011;1558;42.700;23.360;2023-10-13T09:16:15;21.40;;;16.80;;
3095;SDS011;1558;42.700;23.360;2023-10-13T09:18:49;22.88;;;19.60;;
3095;SDS011;1558;42.700;23.360;2023-10-13T09:21:19;26.00;;;17.50;;
3095;SDS011;1558;42.700;23.360;2023-10-13T09:24:01;28.27;;;16.58;;
3095;SDS011;1558;42.700;23.360;2023-10-13T09:26:43;24.92;;;16.13;;
3095;SDS011;1558;42.700;23.360;2023-10-13T09:29:14;24.05;;;17.33;;
3095;SDS011;1558;42.700;23.360;2023-10-13T09:31:58;25.75;;;17.02;;
3095;SDS011;1558;42.700;23.360;2023-10-13T09:34:29;23.70;;;17.65;;
3095;SDS011;1558;42.700;23.360;2023-10-13T09:36:58;22.95;;;17.13;;
3095;SDS011;1558;42.700;23.360;2023-10-13T09:39:29;21.75;;;16.13;;
3095;SDS011;1558;42.700;23.360;2023-10-13T09:42:01;24.65;;;17.02;;
3095;SDS011;1558;42.700;23.360;2023-10-13T09:44:30;23.83;;;16.88;;
3095;SDS011;1558;42.700;23.360;2023-10-13T09:47:01;21.85;;;16.40;;
3095;SDS011;1558;42.700;23.360;2023-10-13T09:49:39;21.08;;;16.50;;
3095;SDS011;1558;42.700;23.360;2023-10-13T09:52:13;21.23;;;14.82;;
3095;SDS011;1558;42.700;23.360;2023-10-13T09:54:51;23.08;;;15.88;;
3095;SDS011;1558;42.700;23.360;2023-10-13T09:57:31;20.50;;;15.52;;
3095;SDS011;1558;42.700;23.360;2023-10-13T10:00:06;21.75;;;15.20;;
3095;SDS011;1558;42.700;23.360;2023-10-13T10:02:55;19.38;;;14.88;;
3095;SDS011;1558;42.700;23.360;2023-10-13T10:05:31;20.85;;;15.45;;
3095;SDS011;1558;42.700;23.360;2023-10-13T10:08:01;19.55;;;15.23;;
3095;SDS011;1558;42.700;23.360;2023-10-13T10:10:37;18.08;;;14.20;;
3095;SDS011;1558;42.700;23.360;2023-10-13T10:13:13;20.10;;;14.57;;
3095;SDS011;1558;42.700;23.360;2023-10-13T10:15:47;19.17;;;14.18;;
3095;SDS011;1558;42.700;23.360;2023-10-13T10:18:20;16.65;;;12.55;;
3095;SDS011;1558;42.700;23.360;2023-10-13T10:20:49;13.63;;;11.93;;
3095;SDS011;1558;42.700;23.360;2023-10-13T10:23:23;18.17;;;12.68;;
3095;SDS011;1558;42.700;23.360;2023-10-13T10:25:53;15.63;;;13.25;;
3095;SDS011;1558;42.700;23.360;2023-10-13T10:28:37;17.58;;;13.13;;
3095;SDS011;1558;42.700;23.360;2023-10-13T10:31:08;19.50;;;14.00;;
3095;SDS011;1558;42.700;23.360;2023-10-13T10:33:43;20.52;;;13.25;;
3095;SDS011;1558;42.700;23.360;2023-10-13T10:36:13;23.27;;;14.57;;
3095;SDS011;1558;42.700;23.360;2023-10-13T10:38:51;16.13;;;13.60;;
3095;SDS011;1558;42.700;23.360;2023-10-13T10:41:27;18.25;;;13.13;;
3095;SDS011;1558;42.700;23.360;2023-10-13T10:44:09;15.40;;;11.55;;
3095;SDS011;1558;42.700;23.360;2023-10-13T10:46:42;16.02;;;11.10;;
3095;SDS011;1558;42.700;23.360;2023-10-13T10:49:20;17.90;;;10.40;;
3095;SDS011;1558;42.700;23.360;2023-10-13T10:51:57;17.05;;;11.63;;
3095;SDS011;1558;42.700;23.360;2023-10-13T10:54:27;16.13;;;10.75;;
3095;SDS011;1558;42.700;23.360;2023-10-13T10:56:58;12.07;;;10.43;;
3095;SDS011;1558;42.700;23.360;2023-10-13T10:59:38;12.88;;;9.43;;
3095;SDS011;1558;42.700;23.360;2023-10-13T11:02:06;13.57;;;10.05;;
3095;SDS011;1558;42.700;23.360;2023-10-13T11:04:36;11.40;;;8.77;;
3095;SDS011;1558;42.700;23.360;2023-10-13T11:07:21;8.73;;;7.38;;
3095;SDS011;1558;42.700;23.360;2023-10-13T11:09:50;14.38;;;8.45;;
3095;SDS011;1558;42.700;23.360;2023-10-13T11:12:32;11.82;;;8.32;;
3095;SDS011;1558;42.700;23.360;2023-10-13T11:15:03;18.85;;;11.35;;
3095;SDS011;1558;42.700;23.360;2023-10-13T11:17:40;10.43;;;8.75;;
3095;SDS011;1558;42.700;23.360;2023-10-13T11:20:19;13.70;;;9.93;;
3095;SDS011;1558;42.700;23.360;2023-10-13T11:22:59;15.85;;;9.70;;
3095;SDS011;1558;42.700;23.360;2023-10-13T11:25:31;12.60;;;7.32;;
3095;SDS011;1558;42.700;23.360;2023-10-13T11:28:11;8.55;;;6.63;;
3095;SDS011;1558;42.700;23.360;2023-10-13T11:30:46;10.75;;;6.78;;
3095;SDS011;1558;42.700;23.360;2023-10-13T11:33:17;10.10;;;6.50;;
3095;SDS011;1558;42.700;23.360;2023-10-13T11:35:51;10.75;;;7.38;;
3095;SDS011;1558;42.700;23.360;2023-10-13T11:38:24;7.25;;;5.70;;
3095;SDS011;1558;42.700;23.360;2023-10-13T11:40:54;11.18;;;6.97;;
3095;SDS011;1558;42.700;23.360;2023-10-13T11:43:43;11.57;;;6.68;;
3095;SDS011;1558;42.700;23.360;2023-10-13T11:46:20;9.32;;;5.60;;
3095;SDS011;1558;42.700;23.360;2023-10-13T11:49:07;8.20;;;4.88;;
3095;SDS011;1558;42.700;23.360;2023-10-13T11:51:46;8.32;;;4.85;;
3095;SDS011;1558;42.700;23.360;2023-10-13T11:54:15;8.85;;;4.60;;
3095;SDS011;1558;42.700;23.360;2023-10-13T11:56:45;14.90;;;7.05;;
3095;SDS011;1558;42.700;23.360;2023-10-13T11:59:14;6.53;;;4.60;;
3095;SDS011;1558;42.700;23.360;2023-10-13T12:01:48;7.95;;;5.13;;
3095;SDS011;1558;42.700;23.360;2023-10-13T12:04:34;8.80;;;4.65;;
3095;SDS011;1558;42.700;23.360;2023-10-13T12:07:11;13.38;;;5.60;;
3095;SDS011;1558;42.700;23.360;2023-10-13T12:09:46;10.65;;;5.65;;
3095;SDS011;1558;42.700;23.360;2023-10-13T12:12:36;7.38;;;4.80;;
3095;SDS011;1558;42.700;23.360;2023-10-13T12:15:10;8.93;;;4.68;;
3095;SDS011;1558;42.700;23.360;2023-10-13T12:17:52;6.78;;;4.65;;
3095;SDS011;1558;42.700;23.360;2023-10-13T12:20:26;16.17;;;6.53;;
3095;SDS011;1558;42.700;23.360;2023-10-13T12:23:01;11.07;;;6.50;;
3095;SDS011;1558;42.700;23.360;2023-10-13T12:25:42;8.50;;;5.90;;
3095;SDS011;1558;42.700;23.360;2023-10-13T12:28:24;9.93;;;5.10;;
3095;SDS011;1558;42.700;23.360;2023-10-13T12:30:55;7.70;;;4.60;;
3095;SDS011;1558;42.700;23.360;2023-10-13T12:33:25;9.63;;;5.75;;
3095;SDS011;1558;42.700;23.360;2023-10-13T12:36:03;6.90;;;5.22;;
3095;SDS011;1558;42.700;23.360;2023-10-13T12:38:37;12.02;;;6.75;;
3095;SDS011;1558;42.700;23.360;2023-10-13T12:41:38;9.60;;;5.50;;
3095;SDS011;1558;42.700;23.360;2023-10-13T12:44:20;8.77;;;4.60;;
3095;SDS011;1558;42.700;23.360;2023-10-13T12:47:05;8.50;;;5.22;;
3095;SDS011;1558;42.700;23.360;2023-10-13T12:49:51;12.30;;;5.32;;
3095;SDS011;1558;42.700;23.360;2023-10-13T12:52:24;6.53;;;4.35;;
3095;SDS011;1558;42.700;23.360;2023-10-13T12:54:54;6.13;;;5.05;;
3095;SDS011;1558;42.700;23.360;2023-10-13T12:57:32;10.27;;;5.40;;
3095;SDS011;1558;42.700;23.360;2023-10-13T13:00:08;9.38;;;5.90;;
3095;SDS011;1558;42.700;23.360;2023-10-13T13:02:47;9.20;;;5.35;;
3095;SDS011;1558;42.700;23.360;2023-10-13T13:05:19;10.35;;;5.78;;
3095;SDS011;1558;42.700;23.360;2023-10-13T13:07:55;10.73;;;5.00;;
3095;SDS011;1558;42.700;23.360;2023-10-13T13:10:25;4.88;;;4.20;;
3095;SDS011;1558;42.700;23.360;2023-10-13T13:13:07;9.35;;;4.88;;
3095;SDS011;1558;42.700;23.360;2023-10-13T13:15:36;10.15;;;5.05;;
3095;SDS011;1558;42.700;23.360;2023-10-13T13:18:04;6.80;;;5.00;;
3095;SDS011;1558;42.700;23.360;2023-10-13T13:20:38;7.15;;;5.07;;
3095;SDS011;1558;42.700;23.360;2023-10-13T13:23:11;11.77;;;5.40;;
3095;SDS011;1558;42.700;23.360;2023-10-13T13:25:45;12.38;;;5.22;;
3095;SDS011;1558;42.700;23.360;2023-10-13T13:28:14;11.73;;;4.60;;
3095;SDS011;1558;42.700;23.360;2023-10-13T13:30:42;6.65;;;4.07;;
3095;SDS011;1558;42.700;23.360;2023-10-13T13:33:10;10.60;;;4.82;;
3095;SDS011;1558;42.700;23.360;2023-10-13T13:35:39;6.07;;;4.72;;
3095;SDS011;1558;42.700;23.360;2023-10-13T13:38:09;7.38;;;4.28;;
3095;SDS011;1558;42.700;23.360;2023-10-13T13:40:43;8.27;;;4.35;;
3095;SDS011;1558;42.700;23.360;2023-10-13T13:43:17;5.00;;;4.18;;
3095;SDS011;1558;42.700;23.360;2023-10-13T13:46:04;8.75;;;5.32;;
3095;SDS011;1558;42.700;23.360;2023-10-13T13:48:36;5.88;;;4.60;;
3095;SDS011;1558;42.700;23.360;2023-10-13T13:51:05;8.02;;;4.53;;
3095;SDS011;1558;42.700;23.360;2023-10-13T13:53:40;12.57;;;4.93;;
3095;SDS011;1558;42.700;23.360;2023-10-13T13:56:12;8.40;;;4.68;;
3095;SDS011;1558;42.700;23.360;2023-10-13T13:58:45;9.60;;;4.75;;
3095;SDS011;1558;42.700;23.360;2023-10-13T14:01:14;9.95;;;4.82;;
3095;SDS011;1558;42.700;23.360;2023-10-13T14:03:44;9.50;;;5.20;;
3095;SDS011;1558;42.700;23.360;2023-10-13T14:06:14;8.43;;;5.00;;
3095;SDS011;1558;42.700;23.360;2023-10-13T14:08:45;10.70;;;5.22;;
3095;SDS011;1558;42.700;23.360;2023-10-13T14:11:15;7.47;;;4.30;;
3095;SDS011;1558;42.700;23.360;2023-10-13T14:13:59;8.57;;;5.03;;
3095;SDS011;1558;42.700;23.360;2023-10-13T14:16:31;6.25;;;4.93;;
3095;SDS011;1558;42.700;23.360;2023-10-13T14:19:00;6.88;;;4.60;;
3095;SDS011;1558;42.700;23.360;2023-10-13T14:21:33;11.32;;;5.70;;
3095;SDS011;1558;42.700;23.360;2023-10-13T14:24:02;10.30;;;5.85;;
3095;SDS011;1558;42.700;23.360;2023-10-13T14:26:43;13.23;;;5.55;;
3095;SDS011;1558;42.700;23.360;2023-10-13T14:29:13;8.98;;;5.93;;
3095;SDS011;1558;42.700;23.360;2023-10-13T14:31:42;8.00;;;4.90;;
3095;SDS011;1558;42.700;23.360;2023-10-13T14:34:11;9.52;;;4.78;;
3095;SDS011;1558;42.700;23.360;2023-10-13T14:36:39;10.02;;;7.03;;
3095;SDS011;1558;42.700;23.360;2023-10-13T14:39:07;10.20;;;4.95;;
3095;SDS011;1558;42.700;23.360;2023-10-13T14:41:36;9.20;;;6.90;;
3095;SDS011;1558;42.700;23.360;2023-10-13T14:44:05;8.90;;;6.07;;
3095;SDS011;1558;42.700;23.360;2023-10-13T14:46:35;8.10;;;5.05;;
3095;SDS011;1558;42.700;23.360;2023-10-13T14:49:06;7.82;;;5.30;;
3095;SDS011;1558;42.700;23.360;2023-10-13T14:51:34;9.70;;;4.90;;
3095;SDS011;1558;42.700;23.360;2023-10-13T14:54:06;9.05;;;4.97;;
3095;SDS011;1558;42.700;23.360;2023-10-13T14:56:35;8.52;;;6.55;;
3095;SDS011;1558;42.700;23.360;2023-10-13T14:59:03;11.75;;;6.65;;
3095;SDS011;1558;42.700;23.360;2023-10-13T15:01:32;6.38;;;4.75;;
3095;SDS011;1558;42.700;23.360;2023-10-13T15:04:03;10.00;;;6.63;;
3095;SDS011;1558;42.700;23.360;2023-10-13T15:06:31;10.43;;;5.13;;
3095;SDS011;1558;42.700;23.360;2023-10-13T15:08:59;6.50;;;4.70;;
3095;SDS011;1558;42.700;23.360;2023-10-13T15:11:30;12.05;;;5.75;;
3095;SDS011;1558;42.700;23.360;2023-10-13T15:14:14;6.53;;;4.70;;
3095;SDS011;1558;42.700;23.360;2023-10-13T15:16:42;13.25;;;8.63;;
3095;SDS011;1558;42.700;23.360;2023-10-13T15:19:13;15.38;;;6.25;;
3095;SDS011;1558;42.700;23.360;2023-10-13T15:21:43;9.90;;;5.55;;
3095;SDS011;1558;42.700;23.360;2023-10-13T15:24:15;11.00;;;5.70;;
3095;SDS011;1558;42.700;23.360;2023-10-13T15:26:53;14.63;;;8.60;;
3095;SDS011;1558;42.700;23.360;2023-10-13T15:29:29;8.43;;;5.47;;